sensor_id;sensor_type;location;lat;lon;timestamp;pressure;altitude;pressure_sealevel;temperature;humidity
56174;BME280;42058;52.308;20.924;2024-02-21T00:02:20;101068.62;;;3.51;100.00
56174;BME280;42058;52.308;20.924;2024-02-21T00:04:48;101070.88;;;3.51;100.00
56174;BME280;42058;52.308;20.924;2024-02-21T00:07:15;101064.61;;;3.50;100.00
56174;BME280;42058;52.308;20.924;2024-02-21T00:09:43;101068.80;;;3.51;100.00
56174;BME280;42058;52.308;20.924;2024-02-21T00:12:11;101068.79;;;3.52;100.00
56174;BME280;42058;52.308;20.924;2024-02-21T00:14:41;101065.16;;;3.52;100.00
56174;BME280;42058;52.308;20.924;2024-02-21T00:17:09;101061.52;;;3.53;100.00
56174;BME280;42058;52.308;20.924;2024-02-21T00:19:36;101056.17;;;3.55;100.00
56174;BME280;42058;52.308;20.924;2024-02-21T00:22:04;101057.21;;;3.55;100.00
56174;BME280;42058;52.308;20.924;2024-02-21T00:24:32;101056.89;;;3.57;100.00
56174;BME280;42058;52.308;20.924;2024-02-21T00:26:59;101054.30;;;3.58;100.00
56174;BME280;42058;52.308;20.924;2024-02-21T00:29:27;101054.66;;;3.59;100.00
56174;BME280;42058;52.308;20.924;2024-02-21T00:31:55;101057.30;;;3.61;100.00
56174;BME280;42058;52.308;20.924;2024-02-21T00:34:23;101057.65;;;3.62;100.00
56174;BME280;42058;52.308;20.924;2024-02-21T00:36:50;101055.77;;;3.64;100.00
56174;BME280;42058;52.308;20.924;2024-02-21T00:39:18;101056.98;;;3.64;100.00
56174;BME280;42058;52.308;20.924;2024-02-21T00:41:46;101057.69;;;3.66;100.00
56174;BME280;42058;52.308;20.924;2024-02-21T00:44:14;101057.36;;;3.67;100.00
56174;BME280;42058;52.308;20.924;2024-02-21T00:46:41;101058.24;;;3.69;100.00
56174;BME280;42058;52.308;20.924;2024-02-21T00:49:09;101057.94;;;3.71;100.00
56174;BME280;42058;52.308;20.924;2024-02-21T00:51:37;101053.08;;;3.71;100.00
56174;BME280;42058;52.308;20.924;2024-02-21T00:54:06;101049.09;;;3.72;100.00
56174;BME280;42058;52.308;20.924;2024-02-21T00:56:33;101048.23;;;3.72;100.00
56174;BME280;42058;52.308;20.924;2024-02-21T00:59:01;101050.33;;;3.74;100.00
56174;BME280;42058;52.308;20.924;2024-02-21T01:01:29;101044.09;;;3.74;100.00
56174;BME280;42058;52.308;20.924;2024-02-21T01:03:57;101039.74;;;3.76;100.00
56174;BME280;42058;52.308;20.924;2024-02-21T01:06:25;101035.61;;;3.77;100.00
56174;BME280;42058;52.308;20.924;2024-02-21T01:08:53;101031.29;;;3.78;100.00
56174;BME280;42058;52.308;20.924;2024-02-21T01:11:21;101030.95;;;3.78;100.00
56174;BME280;42058;52.308;20.924;2024-02-21T01:13:48;101025.39;;;3.79;100.00
56174;BME280;42058;52.308;20.924;2024-02-21T01:16:16;101025.93;;;3.81;100.00
56174;BME280;42058;52.308;20.924;2024-02-21T01:18:44;101020.55;;;3.81;100.00
56174;BME280;42058;52.308;20.924;2024-02-21T01:21:12;101019.38;;;3.84;100.00
56174;BME280;42058;52.308;20.924;2024-02-21T01:23:39;101016.09;;;3.86;100.00
56174;BME280;42058;52.308;20.924;2024-02-21T01:26:07;101019.05;;;3.88;100.00
56174;BME280;42058;52.308;20.924;2024-02-21T01:28:35;101022.38;;;3.89;100.00
56174;BME280;42058;52.308;20.924;2024-02-21T01:31:04;101017.00;;;3.89;100.00
56174;BME280;42058;52.308;20.924;2024-02-21T01:33:32;101025.19;;;3.93;100.00
56174;BME280;42058;52.308;20.924;2024-02-21T01:36:02;101027.11;;;3.94;100.00
56174;BME280;42058;52.308;20.924;2024-02-21T01:38:30;101028.35;;;3.95;100.00
56174;BME280;42058;52.308;20.924;2024-02-21T01:40:59;101021.06;;;3.97;100.00
56174;BME280;42058;52.308;20.924;2024-02-21T01:43:27;101020.58;;;4.00;100.00
56174;BME280;42058;52.308;20.924;2024-02-21T01:45:56;101018.51;;;4.01;100.00
56174;BME280;42058;52.308;20.924;2024-02-21T01:48:24;101020.45;;;4.04;100.00
56174;BME280;42058;52.308;20.924;2024-02-21T01:50:54;101021.67;;;4.06;100.00
56174;BME280;42058;52.308;20.924;2024-02-21T01:53:29;101018.56;;;4.08;100.00
56174;BME280;42058;52.308;20.924;2024-02-21T01:55:57;101018.75;;;4.09;100.00
56174;BME280;42058;52.308;20.924;2024-02-21T01:58:25;101019.65;;;4.11;100.00
56174;BME280;42058;52.308;20.924;2024-02-21T02:00:56;101013.92;;;4.12;100.00
56174;BME280;42058;52.308;20.924;2024-02-21T02:03:24;101015.84;;;4.13;100.00
56174;BME280;42058;52.308;20.924;2024-02-21T02:05:53;101014.46;;;4.14;100.00
56174;BME280;42058;52.308;20.924;2024-02-21T02:08:20;101010.98;;;4.14;100.00
56174;BME280;42058;52.308;20.924;2024-02-21T02:10:52;101010.83;;;4.16;100.00
56174;BME280;42058;52.308;20.924;2024-02-21T02:13:19;101011.36;;;4.17;100.00
56174;BME280;42058;52.308;20.924;2024-02-21T02:15:48;101008.23;;;4.18;100.00
56174;BME280;42058;52.308;20.924;2024-02-21T02:18:17;101005.45;;;4.18;100.00
56174;BME280;42058;52.308;20.924;2024-02-21T02:20:46;101009.80;;;4.18;100.00
56174;BME280;42058;52.308;20.924;2024-02-21T02:23:30;101004.77;;;4.18;100.00
56174;BME280;42058;52.308;20.924;2024-02-21T02:25:59;101006.86;;;4.18;100.00
56174;BME280;42058;52.308;20.924;2024-02-21T02:28:28;101005.84;;;4.20;100.00
56174;BME280;42058;52.308;20.924;2024-02-21T02:30:56;101000.45;;;4.21;100.00
56174;BME280;42058;52.308;20.924;2024-02-21T02:33:24;101002.02;;;4.21;100.00
56174;BME280;42058;52.308;20.924;2024-02-21T02:35:52;101000.27;;;4.21;100.00
56174;BME280;42058;52.308;20.924;2024-02-21T02:38:19;100998.89;;;4.21;100.00
56174;BME280;42058;52.308;20.924;2024-02-21T02:40:47;100998.89;;;4.22;100.00
56174;BME280;42058;52.308;20.924;2024-02-21T02:43:16;101000.30;;;4.23;100.00
56174;BME280;42058;52.308;20.924;2024-02-21T02:45:44;100999.79;;;4.24;100.00
56174;BME280;42058;52.308;20.924;2024-02-21T02:48:12;101003.27;;;4.25;100.00
56174;BME280;42058;52.308;20.924;2024-02-21T02:50:39;100998.05;;;4.24;100.00
56174;BME280;42058;52.308;20.924;2024-02-21T02:53:07;100998.40;;;4.24;100.00
56174;BME280;42058;52.308;20.924;2024-02-21T02:55:35;100997.18;;;4.24;100.00
56174;BME280;42058;52.308;20.924;2024-02-21T02:58:03;100997.02;;;4.26;100.00
56174;BME280;42058;52.308;20.924;2024-02-21T03:00:31;100993.73;;;4.26;100.00
56174;BME280;42058;52.308;20.924;2024-02-21T03:02:59;100990.09;;;4.27;100.00
56174;BME280;42058;52.308;20.924;2024-02-21T03:05:27;100987.83;;;4.27;100.00
56174;BME280;42058;52.308;20.924;2024-02-21T03:07:55;100985.23;;;4.27;100.00
56174;BME280;42058;52.308;20.924;2024-02-21T03:10:23;100985.56;;;4.26;100.00
56174;BME280;42058;52.308;20.924;2024-02-21T03:12:50;100992.67;;;4.26;100.00
56174;BME280;42058;52.308;20.924;2024-02-21T03:15:20;100991.63;;;4.25;100.00
56174;BME280;42058;52.308;20.924;2024-02-21T03:17:48;100990.23;;;4.24;100.00
56174;BME280;42058;52.308;20.924;2024-02-21T03:20:16;100992.66;;;4.23;100.00
56174;BME280;42058;52.308;20.924;2024-02-21T03:22:43;100992.48;;;4.22;100.00
56174;BME280;42058;52.308;20.924;2024-02-21T03:25:11;100988.65;;;4.21;100.00
56174;BME280;42058;52.308;20.924;2024-02-21T03:27:40;100990.70;;;4.18;100.00
56174;BME280;42058;52.308;20.924;2024-02-21T03:30:08;100986.02;;;4.16;100.00
56174;BME280;42058;52.308;20.924;2024-02-21T03:32:36;100985.29;;;4.15;100.00
56174;BME280;42058;52.308;20.924;2024-02-21T03:35:04;100988.23;;;4.14;100.00
56174;BME280;42058;52.308;20.924;2024-02-21T03:37:31;100984.23;;;4.13;100.00
56174;BME280;42058;52.308;20.924;2024-02-21T03:39:59;100983.20;;;4.13;100.00
56174;BME280;42058;52.308;20.924;2024-02-21T03:42:29;100981.11;;;4.13;100.00
56174;BME280;42058;52.308;20.924;2024-02-21T03:44:58;100979.03;;;4.13;100.00
56174;BME280;42058;52.308;20.924;2024-02-21T03:47:26;100977.80;;;4.14;100.00
56174;BME280;42058;52.308;20.924;2024-02-21T03:49:54;100979.55;;;4.14;100.00
56174;BME280;42058;52.308;20.924;2024-02-21T03:52:22;100985.98;;;4.14;100.00
56174;BME280;42058;52.308;20.924;2024-02-21T03:54:50;100988.59;;;4.14;100.00
56174;BME280;42058;52.308;20.924;2024-02-21T03:57:17;100989.98;;;4.15;100.00
56174;BME280;42058;52.308;20.924;2024-02-21T03:59:45;100981.30;;;4.16;100.00
56174;BME280;42058;52.308;20.924;2024-02-21T04:02:13;100981.67;;;4.16;100.00
56174;BME280;42058;52.308;20.924;2024-02-21T04:04:44;100978.70;;;4.16;100.00
56174;BME280;42058;52.308;20.924;2024-02-21T04:07:15;100976.97;;;4.16;100.00
56174;BME280;42058;52.308;20.924;2024-02-21T04:09:43;100975.06;;;4.17;100.00
56174;BME280;42058;52.308;20.924;2024-02-21T04:12:11;100976.11;;;4.18;100.00
56174;BME280;42058;52.308;20.924;2024-02-21T04:14:39;100975.07;;;4.18;100.00
56174;BME280;42058;52.308;20.924;2024-02-21T04:17:09;100971.27;;;4.20;100.00
56174;BME280;42058;52.308;20.924;2024-02-21T04:19:37;100978.40;;;4.20;100.00
56174;BME280;42058;52.308;20.924;2024-02-21T04:22:06;100970.77;;;4.21;100.00
56174;BME280;42058;52.308;20.924;2024-02-21T04:24:34;100970.59;;;4.22;100.00
56174;BME280;42058;52.308;20.924;2024-02-21T04:27:01;100966.95;;;4.23;100.00
56174;BME280;42058;52.308;20.924;2024-02-21T04:29:30;100962.29;;;4.25;100.00
56174;BME280;42058;52.308;20.924;2024-02-21T04:31:58;100955.86;;;4.26;100.00
56174;BME280;42058;52.308;20.924;2024-02-21T04:34:26;100960.92;;;4.28;100.00
56174;BME280;42058;52.308;20.924;2024-02-21T04:36:54;100959.88;;;4.29;100.00
56174;BME280;42058;52.308;20.924;2024-02-21T04:39:21;100953.13;;;4.31;100.00
56174;BME280;42058;52.308;20.924;2024-02-21T04:41:49;100958.35;;;4.33;100.00
56174;BME280;42058;52.308;20.924;2024-02-21T04:44:17;100957.48;;;4.34;100.00
56174;BME280;42058;52.308;20.924;2024-02-21T04:46:49;100955.42;;;4.36;100.00
56174;BME280;42058;52.308;20.924;2024-02-21T04:49:16;100952.13;;;4.37;100.00
56174;BME280;42058;52.308;20.924;2024-02-21T04:51:44;100950.23;;;4.37;100.00
56174;BME280;42058;52.308;20.924;2024-02-21T04:54:12;100951.98;;;4.38;100.00
56174;BME280;42058;52.308;20.924;2024-02-21T04:56:39;100951.45;;;4.39;100.00
56174;BME280;42058;52.308;20.924;2024-02-21T04:59:07;100950.08;;;4.42;100.00
56174;BME280;42058;52.308;20.924;2024-02-21T05:01:35;100946.24;;;4.40;100.00
56174;BME280;42058;52.308;20.924;2024-02-21T05:04:03;100948.70;;;4.43;100.00
56174;BME280;42058;52.308;20.924;2024-02-21T05:06:31;100945.58;;;4.44;100.00
56174;BME280;42058;52.308;20.924;2024-02-21T05:08:58;100946.10;;;4.45;100.00
56174;BME280;42058;52.308;20.924;2024-02-21T05:11:26;100945.41;;;4.47;100.00
56174;BME280;42058;52.308;20.924;2024-02-21T05:13:54;100946.98;;;4.46;100.00
56174;BME280;42058;52.308;20.924;2024-02-21T05:16:22;100947.33;;;4.46;100.00
56174;BME280;42058;52.308;20.924;2024-02-21T05:18:50;100945.41;;;4.46;100.00
56174;BME280;42058;52.308;20.924;2024-02-21T05:21:18;100948.38;;;4.46;100.00
56174;BME280;42058;52.308;20.924;2024-02-21T05:23:45;100947.50;;;4.47;100.00
56174;BME280;42058;52.308;20.924;2024-02-21T05:26:20;100944.90;;;4.48;100.00
56174;BME280;42058;52.308;20.924;2024-02-21T05:28:48;100939.87;;;4.48;100.00
56174;BME280;42058;52.308;20.924;2024-02-21T05:31:18;100941.95;;;4.50;100.00
56174;BME280;42058;52.308;20.924;2024-02-21T05:33:45;100935.70;;;4.50;100.00
56174;BME280;42058;52.308;20.924;2024-02-21T05:36:13;100941.63;;;4.51;100.00
56174;BME280;42058;52.308;20.924;2024-02-21T05:38:41;100937.63;;;4.52;100.00
56174;BME280;42058;52.308;20.924;2024-02-21T05:41:09;100932.60;;;4.53;100.00
56174;BME280;42058;52.308;20.924;2024-02-21T05:43:40;100931.21;;;4.53;100.00
56174;BME280;42058;52.308;20.924;2024-02-21T05:46:07;100930.00;;;4.54;100.00
56174;BME280;42058;52.308;20.924;2024-02-21T05:48:35;100923.58;;;4.54;100.00
56174;BME280;42058;52.308;20.924;2024-02-21T05:51:06;100922.19;;;4.56;100.00
56174;BME280;42058;52.308;20.924;2024-02-21T05:53:34;100925.86;;;4.58;100.00
56174;BME280;42058;52.308;20.924;2024-02-21T05:56:04;100924.46;;;4.59;100.00
56174;BME280;42058;52.308;20.924;2024-02-21T05:58:32;100924.64;;;4.60;100.00
56174;BME280;42058;52.308;20.924;2024-02-21T06:01:00;100922.92;;;4.61;100.00
56174;BME280;42058;52.308;20.924;2024-02-21T06:03:29;100929.00;;;4.62;100.00
56174;BME280;42058;52.308;20.924;2024-02-21T06:05:58;100929.88;;;4.64;100.00
56174;BME280;42058;52.308;20.924;2024-02-21T06:08:26;100926.08;;;4.66;100.00
56174;BME280;42058;52.308;20.924;2024-02-21T06:10:54;100931.66;;;4.68;100.00
56174;BME280;42058;52.308;20.924;2024-02-21T06:13:23;100926.63;;;4.71;100.00
56174;BME280;42058;52.308;20.924;2024-02-21T06:15:51;100922.30;;;4.74;100.00
56174;BME280;42058;52.308;20.924;2024-02-21T06:18:20;100922.33;;;4.77;100.00
56174;BME280;42058;52.308;20.924;2024-02-21T06:20:48;100920.41;;;4.79;100.00
56174;BME280;42058;52.308;20.924;2024-02-21T06:23:16;100923.56;;;4.81;100.00
56174;BME280;42058;52.308;20.924;2024-02-21T06:25:44;100923.40;;;4.85;100.00
56174;BME280;42058;52.308;20.924;2024-02-21T06:28:12;100923.41;;;4.88;100.00
56174;BME280;42058;52.308;20.924;2024-02-21T06:30:40;100928.10;;;4.90;100.00
56174;BME280;42058;52.308;20.924;2024-02-21T06:33:07;100929.86;;;4.92;100.00
56174;BME280;42058;52.308;20.924;2024-02-21T06:35:35;100928.30;;;4.93;100.00
56174;BME280;42058;52.308;20.924;2024-02-21T06:38:03;100930.58;;;4.96;100.00
56174;BME280;42058;52.308;20.924;2024-02-21T06:40:31;100929.37;;;4.98;100.00
56174;BME280;42058;52.308;20.924;2024-02-21T06:43:05;100931.45;;;4.99;100.00
56174;BME280;42058;52.308;20.924;2024-02-21T06:45:33;100930.06;;;5.01;100.00
56174;BME280;42058;52.308;20.924;2024-02-21T06:48:01;100930.60;;;5.01;100.00
56174;BME280;42058;52.308;20.924;2024-02-21T06:50:29;100929.73;;;5.03;100.00
56174;BME280;42058;52.308;20.924;2024-02-21T06:52:57;100928.70;;;5.04;100.00
56174;BME280;42058;52.308;20.924;2024-02-21T06:55:25;100927.66;;;5.06;100.00
56174;BME280;42058;52.308;20.924;2024-02-21T06:57:52;100935.48;;;5.07;100.00
56174;BME280;42058;52.308;20.924;2024-02-21T07:00:20;100931.67;;;5.08;100.00
56174;BME280;42058;52.308;20.924;2024-02-21T07:02:49;100929.42;;;5.10;100.00
56174;BME280;42058;52.308;20.924;2024-02-21T07:05:17;100930.47;;;5.13;100.00
56174;BME280;42058;52.308;20.924;2024-02-21T07:07:45;100929.79;;;5.15;100.00
56174;BME280;42058;52.308;20.924;2024-02-21T07:10:13;100929.10;;;5.17;100.00
56174;BME280;42058;52.308;20.924;2024-02-21T07:12:41;100929.63;;;5.20;100.00
56174;BME280;42058;52.308;20.924;2024-02-21T07:15:11;100932.08;;;5.23;100.00
56174;BME280;42058;52.308;20.924;2024-02-21T07:17:39;100931.73;;;5.24;100.00
56174;BME280;42058;52.308;20.924;2024-02-21T07:20:07;100926.17;;;5.26;100.00
56174;BME280;42058;52.308;20.924;2024-02-21T07:22:35;100926.88;;;5.28;100.00
56174;BME280;42058;52.308;20.924;2024-02-21T07:25:03;100928.09;;;5.29;100.00
56174;BME280;42058;52.308;20.924;2024-02-21T07:27:33;100924.44;;;5.31;100.00
56174;BME280;42058;52.308;20.924;2024-02-21T07:30:01;100923.05;;;5.34;100.00
56174;BME280;42058;52.308;20.924;2024-02-21T07:32:29;100919.06;;;5.37;100.00
56174;BME280;42058;52.308;20.924;2024-02-21T07:34:56;100915.26;;;5.39;100.00
56174;BME280;42058;52.308;20.924;2024-02-21T07:37:24;100910.91;;;5.42;100.00
56174;BME280;42058;52.308;20.924;2024-02-21T07:39:52;100907.27;;;5.45;100.00
56174;BME280;42058;52.308;20.924;2024-02-21T07:42:19;100901.52;;;5.47;100.00
56174;BME280;42058;52.308;20.924;2024-02-21T07:44:47;100895.27;;;5.50;100.00
56174;BME280;42058;52.308;20.924;2024-02-21T07:47:15;100885.34;;;5.53;100.00
56174;BME280;42058;52.308;20.924;2024-02-21T07:49:44;100885.18;;;5.58;100.00
56174;BME280;42058;52.308;20.924;2024-02-21T07:52:12;100883.61;;;5.63;100.00
56174;BME280;42058;52.308;20.924;2024-02-21T07:54:40;100878.39;;;5.68;100.00
56174;BME280;42058;52.308;20.924;2024-02-21T07:57:08;100876.14;;;5.74;100.00
56174;BME280;42058;52.308;20.924;2024-02-21T07:59:36;100872.48;;;5.79;100.00
56174;BME280;42058;52.308;20.924;2024-02-21T08:02:04;100871.45;;;5.83;100.00
56174;BME280;42058;52.308;20.924;2024-02-21T08:04:34;100864.65;;;5.86;100.00
56174;BME280;42058;52.308;20.924;2024-02-21T08:07:02;100863.61;;;5.91;100.00
56174;BME280;42058;52.308;20.924;2024-02-21T08:09:31;100862.58;;;5.98;100.00
56174;BME280;42058;52.308;20.924;2024-02-21T08:11:59;100863.80;;;6.06;100.00
56174;BME280;42058;52.308;20.924;2024-02-21T08:14:27;100861.53;;;6.13;100.00
56174;BME280;42058;52.308;20.924;2024-02-21T08:16:54;100858.92;;;6.18;100.00
56174;BME280;42058;52.308;20.924;2024-02-21T08:19:23;100857.86;;;6.22;100.00
56174;BME280;42058;52.308;20.924;2024-02-21T08:21:51;100853.68;;;6.26;100.00
56174;BME280;42058;52.308;20.924;2024-02-21T08:24:18;100851.05;;;6.28;100.00
56174;BME280;42058;52.308;20.924;2024-02-21T08:26:46;100853.66;;;6.30;100.00
56174;BME280;42058;52.308;20.924;2024-02-21T08:29:13;100853.30;;;6.31;100.00
56174;BME280;42058;52.308;20.924;2024-02-21T08:31:41;100851.73;;;6.34;100.00
56174;BME280;42058;52.308;20.924;2024-02-21T08:34:09;100848.24;;;6.34;100.00
56174;BME280;42058;52.308;20.924;2024-02-21T08:36:37;100846.68;;;6.35;100.00
56174;BME280;42058;52.308;20.924;2024-02-21T08:39:05;100847.55;;;6.38;100.00
56174;BME280;42058;52.308;20.924;2024-02-21T08:41:33;100849.27;;;6.40;100.00
56174;BME280;42058;52.308;20.924;2024-02-21T08:44:22;100849.09;;;6.44;100.00
56174;BME280;42058;52.308;20.924;2024-02-21T08:46:51;100843.69;;;6.47;100.00
56174;BME280;42058;52.308;20.924;2024-02-21T08:49:19;100845.77;;;6.50;100.00
56174;BME280;42058;52.308;20.924;2024-02-21T08:51:48;100843.33;;;6.53;100.00
56174;BME280;42058;52.308;20.924;2024-02-21T08:54:16;100843.48;;;6.54;100.00
56174;BME280;42058;52.308;20.924;2024-02-21T08:56:44;100841.57;;;6.57;100.00
56174;BME280;42058;52.308;20.924;2024-02-21T08:59:12;100830.92;;;6.59;100.00
56174;BME280;42058;52.308;20.924;2024-02-21T09:01:39;100826.72;;;6.62;100.00
56174;BME280;42058;52.308;20.924;2024-02-21T09:04:07;100826.88;;;6.67;100.00
56174;BME280;42058;52.308;20.924;2024-02-21T09:06:35;100823.55;;;6.70;100.00
56174;BME280;42058;52.308;20.924;2024-02-21T09:09:06;100819.70;;;6.76;100.00
56174;BME280;42058;52.308;20.924;2024-02-21T09:11:35;100826.11;;;6.83;100.00
56174;BME280;42058;52.308;20.924;2024-02-21T09:14:03;100821.20;;;6.89;100.00
56174;BME280;42058;52.308;20.924;2024-02-21T09:16:31;100819.43;;;6.93;100.00
56174;BME280;42058;52.308;20.924;2024-02-21T09:19:00;100818.20;;;6.93;100.00
56174;BME280;42058;52.308;20.924;2024-02-21T09:21:28;100816.80;;;6.96;100.00
56174;BME280;42058;52.308;20.924;2024-02-21T09:23:56;100822.36;;;6.98;100.00
56174;BME280;42058;52.308;20.924;2024-02-21T09:26:27;100822.20;;;6.99;100.00
56174;BME280;42058;52.308;20.924;2024-02-21T09:28:54;100820.10;;;6.99;100.00
56174;BME280;42058;52.308;20.924;2024-02-21T09:31:22;100821.83;;;7.01;100.00
56174;BME280;42058;52.308;20.924;2024-02-21T09:33:50;100819.72;;;7.04;100.00
56174;BME280;42058;52.308;20.924;2024-02-21T09:36:18;100819.36;;;7.05;100.00
56174;BME280;42058;52.308;20.924;2024-02-21T09:38:46;100816.05;;;7.05;100.00
56174;BME280;42058;52.308;20.924;2024-02-21T09:41:18;100814.64;;;7.08;100.00
56174;BME280;42058;52.308;20.924;2024-02-21T09:43:52;100816.54;;;7.11;100.00
56174;BME280;42058;52.308;20.924;2024-02-21T09:46:48;100814.27;;;7.12;100.00
56174;BME280;42058;52.308;20.924;2024-02-21T09:49:35;100813.22;;;7.13;100.00
56174;BME280;42058;52.308;20.924;2024-02-21T09:52:06;100804.32;;;7.11;100.00
56174;BME280;42058;52.308;20.924;2024-02-21T09:54:35;100809.91;;;7.10;100.00
56174;BME280;42058;52.308;20.924;2024-02-21T09:57:03;100807.84;;;7.08;100.00
56174;BME280;42058;52.308;20.924;2024-02-21T09:59:33;100806.60;;;7.10;100.00
56174;BME280;42058;52.308;20.924;2024-02-21T10:02:01;100804.67;;;7.11;100.00
56174;BME280;42058;52.308;20.924;2024-02-21T10:04:29;100798.38;;;7.12;100.00
56174;BME280;42058;52.308;20.924;2024-02-21T10:06:58;100794.54;;;7.13;100.00
56174;BME280;42058;52.308;20.924;2024-02-21T10:09:27;100792.09;;;7.13;100.00
56174;BME280;42058;52.308;20.924;2024-02-21T10:12:10;100791.57;;;7.13;100.00
56174;BME280;42058;52.308;20.924;2024-02-21T10:14:39;100788.61;;;7.14;100.00
56174;BME280;42058;52.308;20.924;2024-02-21T10:17:14;100787.02;;;7.17;100.00
56174;BME280;42058;52.308;20.924;2024-02-21T10:19:43;100780.39;;;7.18;100.00
56174;BME280;42058;52.308;20.924;2024-02-21T10:22:10;100778.63;;;7.19;100.00
56174;BME280;42058;52.308;20.924;2024-02-21T10:24:38;100771.98;;;7.22;100.00
56174;BME280;42058;52.308;20.924;2024-02-21T10:27:09;100767.77;;;7.25;100.00
56174;BME280;42058;52.308;20.924;2024-02-21T10:29:39;100772.27;;;7.29;100.00
56174;BME280;42058;52.308;20.924;2024-02-21T10:32:08;100767.55;;;7.30;100.00
56174;BME280;42058;52.308;20.924;2024-02-21T10:34:37;100767.88;;;7.33;100.00
56174;BME280;42058;52.308;20.924;2024-02-21T10:37:07;100769.26;;;7.35;100.00
56174;BME280;42058;52.308;20.924;2024-02-21T10:39:38;100765.21;;;7.39;100.00
56174;BME280;42058;52.308;20.924;2024-02-21T10:42:06;100762.39;;;7.43;100.00
56174;BME280;42058;52.308;20.924;2024-02-21T10:44:39;100761.14;;;7.45;100.00
56174;BME280;42058;52.308;20.924;2024-02-21T10:47:09;100759.90;;;7.48;100.00
56174;BME280;42058;52.308;20.924;2024-02-21T10:49:40;100753.45;;;7.48;100.00
56174;BME280;42058;52.308;20.924;2024-02-21T10:52:14;100757.81;;;7.47;100.00
56174;BME280;42058;52.308;20.924;2024-02-21T10:54:55;100746.65;;;7.46;100.00
56174;BME280;42058;52.308;20.924;2024-02-21T10:57:25;100747.37;;;7.45;100.00
56174;BME280;42058;52.308;20.924;2024-02-21T10:59:55;100741.44;;;7.44;100.00
56174;BME280;42058;52.308;20.924;2024-02-21T11:02:24;100732.36;;;7.44;100.00
56174;BME280;42058;52.308;20.924;2024-02-21T11:04:53;100734.09;;;7.45;100.00
56174;BME280;42058;52.308;20.924;2024-02-21T11:07:22;100729.00;;;7.49;100.00
56174;BME280;42058;52.308;20.924;2024-02-21T11:09:52;100718.68;;;7.51;100.00
56174;BME280;42058;52.308;20.924;2024-02-21T11:12:23;100718.14;;;7.51;100.00
56174;BME280;42058;52.308;20.924;2024-02-21T11:15:03;100717.10;;;7.52;100.00
56174;BME280;42058;52.308;20.924;2024-02-21T11:17:32;100716.40;;;7.53;100.00
56174;BME280;42058;52.308;20.924;2024-02-21T11:20:12;100715.88;;;7.51;100.00
56174;BME280;42058;52.308;20.924;2024-02-21T11:22:41;100711.18;;;7.50;100.00
56174;BME280;42058;52.308;20.924;2024-02-21T11:25:10;100708.23;;;7.48;100.00
56174;BME280;42058;52.308;20.924;2024-02-21T11:27:45;100702.80;;;7.50;100.00
56174;BME280;42058;52.308;20.924;2024-02-21T11:30:13;100698.76;;;7.54;100.00
56174;BME280;42058;52.308;20.924;2024-02-21T11:32:49;100694.35;;;7.57;100.00
56174;BME280;42058;52.308;20.924;2024-02-21T11:35:20;100692.77;;;7.58;100.00
56174;BME280;42058;52.308;20.924;2024-02-21T11:37:48;100696.80;;;7.58;100.00
56174;BME280;42058;52.308;20.924;2024-02-21T11:40:16;100689.13;;;7.57;100.00
56174;BME280;42058;52.308;20.924;2024-02-21T11:42:43;100689.67;;;7.56;100.00
56174;BME280;42058;52.308;20.924;2024-02-21T11:45:11;100690.36;;;7.54;100.00
56174;BME280;42058;52.308;20.924;2024-02-21T11:47:42;100689.36;;;7.50;100.00
56174;BME280;42058;52.308;20.924;2024-02-21T11:50:10;100688.31;;;7.50;100.00
56174;BME280;42058;52.308;20.924;2024-02-21T11:52:41;100686.73;;;7.51;100.00
56174;BME280;42058;52.308;20.924;2024-02-21T11:55:08;100679.94;;;7.49;100.00
56174;BME280;42058;52.308;20.924;2024-02-21T11:57:37;100682.93;;;7.47;100.00
56174;BME280;42058;52.308;20.924;2024-02-21T12:00:19;100679.81;;;7.45;100.00
56174;BME280;42058;52.308;20.924;2024-02-21T12:02:49;100679.13;;;7.44;100.00
56174;BME280;42058;52.308;20.924;2024-02-21T12:05:21;100676.00;;;7.41;100.00
56174;BME280;42058;52.308;20.924;2024-02-21T12:07:49;100678.13;;;7.39;100.00
56174;BME280;42058;52.308;20.924;2024-02-21T12:10:17;100672.39;;;7.36;100.00
56174;BME280;42058;52.308;20.924;2024-02-21T12:12:44;100672.08;;;7.33;100.00
56174;BME280;42058;52.308;20.924;2024-02-21T12:15:12;100665.45;;;7.32;100.00
56174;BME280;42058;52.308;20.924;2024-02-21T12:17:40;100660.38;;;7.31;100.00
56174;BME280;42058;52.308;20.924;2024-02-21T12:22:38;100658.30;;;7.31;100.00
56174;BME280;42058;52.308;20.924;2024-02-21T12:25:27;100661.98;;;7.28;100.00
56174;BME280;42058;52.308;20.924;2024-02-21T12:27:56;100655.04;;;7.25;100.00
56174;BME280;42058;52.308;20.924;2024-02-21T12:30:24;100653.31;;;7.23;100.00
56174;BME280;42058;52.308;20.924;2024-02-21T12:32:51;100646.86;;;7.22;100.00
56174;BME280;42058;52.308;20.924;2024-02-21T12:35:19;100644.63;;;7.19;100.00
56174;BME280;42058;52.308;20.924;2024-02-21T12:37:50;100648.66;;;7.16;100.00
56174;BME280;42058;52.308;20.924;2024-02-21T12:40:18;100643.09;;;7.14;100.00
56174;BME280;42058;52.308;20.924;2024-02-21T12:42:46;100636.31;;;7.11;100.00
56174;BME280;42058;52.308;20.924;2024-02-21T12:45:14;100629.34;;;7.10;100.00
56174;BME280;42058;52.308;20.924;2024-02-21T12:47:43;100633.56;;;7.07;100.00
56174;BME280;42058;52.308;20.924;2024-02-21T12:50:11;100638.98;;;7.04;100.00
56174;BME280;42058;52.308;20.924;2024-02-21T12:52:39;100636.04;;;7.04;100.00